sensor_id;sensor_type;location;lat;lon;timestamp;temperature;humidity
610;DHT22;292;48.800;9.216;2022-10-22T00:01:12;16.70;82.40
610;DHT22;292;48.800;9.216;2022-10-22T00:03:39;16.60;82.40
610;DHT22;292;48.800;9.216;2022-10-22T00:06:06;16.60;82.20
610;DHT22;292;48.800;9.216;2022-10-22T00:08:33;16.60;82.10
610;DHT22;292;48.800;9.216;2022-10-22T00:11:07;16.50;81.90
610;DHT22;292;48.800;9.216;2022-10-22T00:13:36;16.50;81.90
610;DHT22;292;48.800;9.216;2022-10-22T00:16:03;16.50;82.00
610;DHT22;292;48.800;9.216;2022-10-22T00:18:30;16.50;82.10
610;DHT22;292;48.800;9.216;2022-10-22T00:20:57;16.50;82.10
610;DHT22;292;48.800;9.216;2022-10-22T00:23:25;16.50;82.20
610;DHT22;292;48.800;9.216;2022-10-22T00:25:57;16.50;82.20
610;DHT22;292;48.800;9.216;2022-10-22T00:28:24;16.50;82.20
610;DHT22;292;48.800;9.216;2022-10-22T00:30:56;16.50;82.20
610;DHT22;292;48.800;9.216;2022-10-22T00:33:23;16.50;82.20
610;DHT22;292;48.800;9.216;2022-10-22T00:35:50;16.50;82.20
610;DHT22;292;48.800;9.216;2022-10-22T00:38:17;16.50;82.20
610;DHT22;292;48.800;9.216;2022-10-22T00:40:45;16.50;82.40
610;DHT22;292;48.800;9.216;2022-10-22T00:43:14;16.50;82.50
610;DHT22;292;48.800;9.216;2022-10-22T00:45:43;16.50;82.50
610;DHT22;292;48.800;9.216;2022-10-22T00:48:13;16.50;82.50
610;DHT22;292;48.800;9.216;2022-10-22T00:50:44;16.50;82.50
610;DHT22;292;48.800;9.216;2022-10-22T00:53:18;16.50;82.60
610;DHT22;292;48.800;9.216;2022-10-22T00:55:49;16.60;82.80
610;DHT22;292;48.800;9.216;2022-10-22T00:58:18;16.60;82.80
610;DHT22;292;48.800;9.216;2022-10-22T01:00:46;16.60;82.80
610;DHT22;292;48.800;9.216;2022-10-22T01:03:17;16.60;82.80
610;DHT22;292;48.800;9.216;2022-10-22T01:05:55;16.50;82.80
610;DHT22;292;48.800;9.216;2022-10-22T01:08:26;16.50;82.90
610;DHT22;292;48.800;9.216;2022-10-22T01:11:01;16.50;82.90
610;DHT22;292;48.800;9.216;2022-10-22T01:13:44;16.40;83.10
610;DHT22;292;48.800;9.216;2022-10-22T01:16:18;16.40;82.90
610;DHT22;292;48.800;9.216;2022-10-22T01:18:59;16.30;83.10
610;DHT22;292;48.800;9.216;2022-10-22T01:21:32;16.30;83.40
610;DHT22;292;48.800;9.216;2022-10-22T01:24:17;16.30;83.40
610;DHT22;292;48.800;9.216;2022-10-22T01:27:19;16.30;83.50
610;DHT22;292;48.800;9.216;2022-10-22T01:29:54;16.30;83.80
610;DHT22;292;48.800;9.216;2022-10-22T01:32:24;16.20;83.80
610;DHT22;292;48.800;9.216;2022-10-22T01:34:54;16.20;83.80
610;DHT22;292;48.800;9.216;2022-10-22T01:37:25;16.20;83.60
610;DHT22;292;48.800;9.216;2022-10-22T01:39:56;16.20;83.60
610;DHT22;292;48.800;9.216;2022-10-22T01:42:23;16.20;83.50
610;DHT22;292;48.800;9.216;2022-10-22T01:44:52;16.20;83.50
610;DHT22;292;48.800;9.216;2022-10-22T01:47:27;16.20;83.40
610;DHT22;292;48.800;9.216;2022-10-22T01:50:26;16.20;83.20
610;DHT22;292;48.800;9.216;2022-10-22T01:53:14;16.20;83.20
610;DHT22;292;48.800;9.216;2022-10-22T01:55:52;16.20;83.20
610;DHT22;292;48.800;9.216;2022-10-22T01:58:31;16.30;83.10
610;DHT22;292;48.800;9.216;2022-10-22T02:01:07;16.30;83.10
610;DHT22;292;48.800;9.216;2022-10-22T02:03:39;16.30;82.90
610;DHT22;292;48.800;9.216;2022-10-22T02:06:12;16.30;82.90
610;DHT22;292;48.800;9.216;2022-10-22T02:08:42;16.30;82.90
610;DHT22;292;48.800;9.216;2022-10-22T02:11:11;16.30;82.90
610;DHT22;292;48.800;9.216;2022-10-22T02:13:41;16.30;82.90
610;DHT22;292;48.800;9.216;2022-10-22T02:16:14;16.30;82.90
610;DHT22;292;48.800;9.216;2022-10-22T02:18:46;16.40;82.90
610;DHT22;292;48.800;9.216;2022-10-22T02:21:15;16.40;83.10
610;DHT22;292;48.800;9.216;2022-10-22T02:23:43;16.40;83.10
610;DHT22;292;48.800;9.216;2022-10-22T02:26:21;16.50;83.10
610;DHT22;292;48.800;9.216;2022-10-22T02:28:57;16.50;83.10
610;DHT22;292;48.800;9.216;2022-10-22T02:31:29;16.50;83.10
610;DHT22;292;48.800;9.216;2022-10-22T02:34:00;16.50;83.10
610;DHT22;292;48.800;9.216;2022-10-22T02:36:29;16.40;82.90
610;DHT22;292;48.800;9.216;2022-10-22T02:39:00;16.40;82.90
610;DHT22;292;48.800;9.216;2022-10-22T02:41:28;16.40;82.90
610;DHT22;292;48.800;9.216;2022-10-22T02:43:55;16.40;82.90
610;DHT22;292;48.800;9.216;2022-10-22T02:46:23;16.40;83.10
610;DHT22;292;48.800;9.216;2022-10-22T02:48:51;16.40;83.10
610;DHT22;292;48.800;9.216;2022-10-22T02:51:18;16.50;82.90
610;DHT22;292;48.800;9.216;2022-10-22T02:53:45;16.50;83.10
610;DHT22;292;48.800;9.216;2022-10-22T02:56:12;16.40;82.90
610;DHT22;292;48.800;9.216;2022-10-22T02:58:39;16.40;83.10
610;DHT22;292;48.800;9.216;2022-10-22T03:01:06;16.40;83.10
610;DHT22;292;48.800;9.216;2022-10-22T03:03:34;16.30;83.10
610;DHT22;292;48.800;9.216;2022-10-22T03:06:02;16.40;83.10
610;DHT22;292;48.800;9.216;2022-10-22T03:08:29;16.40;82.90
610;DHT22;292;48.800;9.216;2022-10-22T03:10:56;16.40;82.80
610;DHT22;292;48.800;9.216;2022-10-22T03:13:23;16.40;82.60
610;DHT22;292;48.800;9.216;2022-10-22T03:15:50;16.40;82.50
610;DHT22;292;48.800;9.216;2022-10-22T03:18:17;16.40;82.60
610;DHT22;292;48.800;9.216;2022-10-22T03:20:44;16.40;82.60
610;DHT22;292;48.800;9.216;2022-10-22T03:23:14;16.40;82.80
610;DHT22;292;48.800;9.216;2022-10-22T03:25:43;16.30;82.90
610;DHT22;292;48.800;9.216;2022-10-22T03:28:14;16.30;83.10
610;DHT22;292;48.800;9.216;2022-10-22T03:30:43;16.30;83.40
610;DHT22;292;48.800;9.216;2022-10-22T03:33:10;16.30;83.50
610;DHT22;292;48.800;9.216;2022-10-22T03:35:41;16.30;83.50
610;DHT22;292;48.800;9.216;2022-10-22T03:38:10;16.20;83.50
610;DHT22;292;48.800;9.216;2022-10-22T03:40:38;16.20;83.60
610;DHT22;292;48.800;9.216;2022-10-22T03:43:06;16.20;83.60
610;DHT22;292;48.800;9.216;2022-10-22T03:45:33;16.30;83.60
610;DHT22;292;48.800;9.216;2022-10-22T03:48:00;16.30;83.80
610;DHT22;292;48.800;9.216;2022-10-22T03:50:28;16.30;83.60
610;DHT22;292;48.800;9.216;2022-10-22T03:52:55;16.30;83.60
610;DHT22;292;48.800;9.216;2022-10-22T03:55:22;16.30;83.50
610;DHT22;292;48.800;9.216;2022-10-22T03:57:51;16.30;83.60
610;DHT22;292;48.800;9.216;2022-10-22T04:00:18;16.30;83.80
610;DHT22;292;48.800;9.216;2022-10-22T04:02:48;16.30;83.90
610;DHT22;292;48.800;9.216;2022-10-22T04:05:15;16.20;83.90
610;DHT22;292;48.800;9.216;2022-10-22T04:07:42;16.20;83.90
610;DHT22;292;48.800;9.216;2022-10-22T04:10:09;16.20;83.90
610;DHT22;292;48.800;9.216;2022-10-22T04:12:36;16.20;83.80
610;DHT22;292;48.800;9.216;2022-10-22T04:15:06;16.20;83.80
610;DHT22;292;48.800;9.216;2022-10-22T04:17:34;16.20;83.60
610;DHT22;292;48.800;9.216;2022-10-22T04:20:02;16.20;83.60
610;DHT22;292;48.800;9.216;2022-10-22T04:22:32;16.20;83.60
610;DHT22;292;48.800;9.216;2022-10-22T04:24:59;16.20;83.60
610;DHT22;292;48.800;9.216;2022-10-22T04:27:29;16.20;83.60
610;DHT22;292;48.800;9.216;2022-10-22T04:29:56;16.20;83.80
610;DHT22;292;48.800;9.216;2022-10-22T04:32:24;16.20;83.60
610;DHT22;292;48.800;9.216;2022-10-22T04:34:52;16.20;83.60
610;DHT22;292;48.800;9.216;2022-10-22T04:37:19;16.20;83.50
610;DHT22;292;48.800;9.216;2022-10-22T04:39:46;16.30;83.40
610;DHT22;292;48.800;9.216;2022-10-22T04:42:13;16.30;83.20
610;DHT22;292;48.800;9.216;2022-10-22T04:44:40;16.30;83.20
610;DHT22;292;48.800;9.216;2022-10-22T04:47:08;16.30;83.10
610;DHT22;292;48.800;9.216;2022-10-22T04:49:37;16.30;82.90
610;DHT22;292;48.800;9.216;2022-10-22T04:52:04;16.20;82.80
610;DHT22;292;48.800;9.216;2022-10-22T04:54:31;16.20;82.60
610;DHT22;292;48.800;9.216;2022-10-22T04:56:58;16.10;82.60
610;DHT22;292;48.800;9.216;2022-10-22T04:59:25;16.10;82.80
610;DHT22;292;48.800;9.216;2022-10-22T05:01:52;16.00;82.90
610;DHT22;292;48.800;9.216;2022-10-22T05:04:19;16.00;83.10
610;DHT22;292;48.800;9.216;2022-10-22T05:06:48;16.00;83.20
610;DHT22;292;48.800;9.216;2022-10-22T05:09:18;16.00;83.10
610;DHT22;292;48.800;9.216;2022-10-22T05:11:47;16.00;83.10
610;DHT22;292;48.800;9.216;2022-10-22T05:14:16;16.00;83.10
610;DHT22;292;48.800;9.216;2022-10-22T05:16:44;16.00;83.10
610;DHT22;292;48.800;9.216;2022-10-22T05:19:16;16.00;82.90
610;DHT22;292;48.800;9.216;2022-10-22T05:21:43;16.00;82.90
610;DHT22;292;48.800;9.216;2022-10-22T05:24:12;16.10;82.90
610;DHT22;292;48.800;9.216;2022-10-22T05:26:39;16.10;82.80
610;DHT22;292;48.800;9.216;2022-10-22T05:29:06;16.10;82.60
610;DHT22;292;48.800;9.216;2022-10-22T05:31:33;16.10;82.50
610;DHT22;292;48.800;9.216;2022-10-22T05:34:00;16.20;82.50
610;DHT22;292;48.800;9.216;2022-10-22T05:36:27;16.20;82.40
610;DHT22;292;48.800;9.216;2022-10-22T05:38:55;16.20;82.20
610;DHT22;292;48.800;9.216;2022-10-22T05:41:25;16.20;82.10
610;DHT22;292;48.800;9.216;2022-10-22T05:43:54;16.30;82.10
610;DHT22;292;48.800;9.216;2022-10-22T05:46:22;16.30;82.00
610;DHT22;292;48.800;9.216;2022-10-22T05:48:50;16.20;82.10
610;DHT22;292;48.800;9.216;2022-10-22T05:51:18;16.20;82.10
610;DHT22;292;48.800;9.216;2022-10-22T05:53:45;16.20;82.20
610;DHT22;292;48.800;9.216;2022-10-22T05:56:16;16.20;82.20
610;DHT22;292;48.800;9.216;2022-10-22T05:58:46;16.20;82.20
610;DHT22;292;48.800;9.216;2022-10-22T06:01:14;16.20;82.20
610;DHT22;292;48.800;9.216;2022-10-22T06:03:42;16.20;82.40
610;DHT22;292;48.800;9.216;2022-10-22T06:06:16;16.20;82.20
610;DHT22;292;48.800;9.216;2022-10-22T06:08:44;16.20;82.10
610;DHT22;292;48.800;9.216;2022-10-22T06:11:11;16.20;82.10
610;DHT22;292;48.800;9.216;2022-10-22T06:13:38;16.20;81.90
610;DHT22;292;48.800;9.216;2022-10-22T06:16:07;16.20;81.70
610;DHT22;292;48.800;9.216;2022-10-22T06:18:34;16.30;81.70
610;DHT22;292;48.800;9.216;2022-10-22T06:21:05;16.30;81.60
610;DHT22;292;48.800;9.216;2022-10-22T06:23:33;16.30;81.60
610;DHT22;292;48.800;9.216;2022-10-22T06:26:00;16.30;81.30
610;DHT22;292;48.800;9.216;2022-10-22T06:28:28;16.30;81.30
610;DHT22;292;48.800;9.216;2022-10-22T06:30:56;16.30;81.20
610;DHT22;292;48.800;9.216;2022-10-22T06:33:26;16.30;80.90
610;DHT22;292;48.800;9.216;2022-10-22T06:35:54;16.30;80.90
610;DHT22;292;48.800;9.216;2022-10-22T06:38:21;16.30;80.60
610;DHT22;292;48.800;9.216;2022-10-22T06:40:48;16.30;80.40
610;DHT22;292;48.800;9.216;2022-10-22T06:43:15;16.30;80.30
610;DHT22;292;48.800;9.216;2022-10-22T06:45:42;16.30;80.30
610;DHT22;292;48.800;9.216;2022-10-22T06:48:09;16.30;80.10
610;DHT22;292;48.800;9.216;2022-10-22T06:50:38;16.30;80.00
610;DHT22;292;48.800;9.216;2022-10-22T06:53:05;16.40;80.00
610;DHT22;292;48.800;9.216;2022-10-22T06:55:32;16.40;80.10
610;DHT22;292;48.800;9.216;2022-10-22T06:58:01;16.40;80.30
610;DHT22;292;48.800;9.216;2022-10-22T07:00:28;16.40;80.60
610;DHT22;292;48.800;9.216;2022-10-22T07:02:55;16.40;80.70
610;DHT22;292;48.800;9.216;2022-10-22T07:05:22;16.40;80.90
610;DHT22;292;48.800;9.216;2022-10-22T07:07:50;16.40;80.90
610;DHT22;292;48.800;9.216;2022-10-22T07:10:17;16.40;81.00
610;DHT22;292;48.800;9.216;2022-10-22T07:12:44;16.40;81.00
610;DHT22;292;48.800;9.216;2022-10-22T07:15:11;16.40;81.00
610;DHT22;292;48.800;9.216;2022-10-22T07:17:38;16.40;81.00
610;DHT22;292;48.800;9.216;2022-10-22T07:20:06;16.50;81.00
610;DHT22;292;48.800;9.216;2022-10-22T07:22:33;16.50;81.00
610;DHT22;292;48.800;9.216;2022-10-22T07:25:02;16.50;80.90
610;DHT22;292;48.800;9.216;2022-10-22T07:27:29;16.50;80.90
610;DHT22;292;48.800;9.216;2022-10-22T07:29:56;16.50;81.00
610;DHT22;292;48.800;9.216;2022-10-22T07:32:25;16.50;81.00
610;DHT22;292;48.800;9.216;2022-10-22T07:34:52;16.50;81.00
610;DHT22;292;48.800;9.216;2022-10-22T07:37:19;16.50;81.00
610;DHT22;292;48.800;9.216;2022-10-22T07:39:46;16.50;81.00
610;DHT22;292;48.800;9.216;2022-10-22T07:42:15;16.50;80.90
610;DHT22;292;48.800;9.216;2022-10-22T07:44:42;16.60;80.90
610;DHT22;292;48.800;9.216;2022-10-22T07:47:09;16.60;81.00
610;DHT22;292;48.800;9.216;2022-10-22T07:49:36;16.60;81.00
610;DHT22;292;48.800;9.216;2022-10-22T07:52:05;16.60;81.00
610;DHT22;292;48.800;9.216;2022-10-22T07:54:32;16.60;81.00
610;DHT22;292;48.800;9.216;2022-10-22T07:56:59;16.60;81.00
610;DHT22;292;48.800;9.216;2022-10-22T07:59:27;16.70;80.90
610;DHT22;292;48.800;9.216;2022-10-22T08:01:54;16.70;80.90
610;DHT22;292;48.800;9.216;2022-10-22T08:04:21;16.70;81.00
610;DHT22;292;48.800;9.216;2022-10-22T08:06:48;16.80;81.00
610;DHT22;292;48.800;9.216;2022-10-22T08:09:15;16.80;80.90
610;DHT22;292;48.800;9.216;2022-10-22T08:11:42;16.80;80.90
610;DHT22;292;48.800;9.216;2022-10-22T08:14:10;16.90;80.70
610;DHT22;292;48.800;9.216;2022-10-22T08:16:38;16.90;80.70
610;DHT22;292;48.800;9.216;2022-10-22T08:19:05;16.90;80.70
610;DHT22;292;48.800;9.216;2022-10-22T08:21:32;17.00;80.70
610;DHT22;292;48.800;9.216;2022-10-22T08:23:59;17.00;80.70
610;DHT22;292;48.800;9.216;2022-10-22T08:26:26;17.10;80.70
610;DHT22;292;48.800;9.216;2022-10-22T08:28:54;17.10;80.70
610;DHT22;292;48.800;9.216;2022-10-22T08:31:21;17.20;80.60
610;DHT22;292;48.800;9.216;2022-10-22T08:33:49;17.20;80.40
610;DHT22;292;48.800;9.216;2022-10-22T08:36:16;17.30;80.40
610;DHT22;292;48.800;9.216;2022-10-22T08:38:43;17.30;80.40
610;DHT22;292;48.800;9.216;2022-10-22T08:41:12;17.40;80.40
610;DHT22;292;48.800;9.216;2022-10-22T08:44:14;17.50;80.60
610;DHT22;292;48.800;9.216;2022-10-22T08:47:06;17.70;80.60
610;DHT22;292;48.800;9.216;2022-10-22T08:49:41;17.80;80.30
610;DHT22;292;48.800;9.216;2022-10-22T08:52:11;18.00;79.90
610;DHT22;292;48.800;9.216;2022-10-22T08:54:47;18.20;79.70
610;DHT22;292;48.800;9.216;2022-10-22T08:57:25;18.50;79.30
610;DHT22;292;48.800;9.216;2022-10-22T08:59:59;18.80;78.70
610;DHT22;292;48.800;9.216;2022-10-22T09:02:36;19.10;78.00
610;DHT22;292;48.800;9.216;2022-10-22T09:05:27;19.40;77.10
610;DHT22;292;48.800;9.216;2022-10-22T09:07:57;19.70;76.10
610;DHT22;292;48.800;9.216;2022-10-22T09:10:27;20.00;75.20
610;DHT22;292;48.800;9.216;2022-10-22T09:12:55;20.40;74.20
610;DHT22;292;48.800;9.216;2022-10-22T09:15:22;20.70;72.90
610;DHT22;292;48.800;9.216;2022-10-22T09:17:57;21.00;71.90
610;DHT22;292;48.800;9.216;2022-10-22T09:20:35;21.30;70.90
610;DHT22;292;48.800;9.216;2022-10-22T09:23:18;21.70;69.50
610;DHT22;292;48.800;9.216;2022-10-22T09:25:46;22.00;68.50
610;DHT22;292;48.800;9.216;2022-10-22T09:28:16;22.30;67.50
610;DHT22;292;48.800;9.216;2022-10-22T09:30:42;22.50;66.60
610;DHT22;292;48.800;9.216;2022-10-22T09:33:12;22.70;65.90
610;DHT22;292;48.800;9.216;2022-10-22T09:35:47;23.00;64.90
610;DHT22;292;48.800;9.216;2022-10-22T09:38:17;23.20;63.40
610;DHT22;292;48.800;9.216;2022-10-22T09:40:47;23.20;62.10
610;DHT22;292;48.800;9.216;2022-10-22T09:43:16;23.20;61.40
610;DHT22;292;48.800;9.216;2022-10-22T09:45:44;23.10;60.70
610;DHT22;292;48.800;9.216;2022-10-22T09:48:19;23.00;61.00
610;DHT22;292;48.800;9.216;2022-10-22T09:50:59;22.90;60.70
610;DHT22;292;48.800;9.216;2022-10-22T09:53:30;22.90;60.70
610;DHT22;292;48.800;9.216;2022-10-22T09:55:59;22.90;60.50
610;DHT22;292;48.800;9.216;2022-10-22T09:58:27;23.00;60.50
610;DHT22;292;48.800;9.216;2022-10-22T10:00:56;23.20;60.20
610;DHT22;292;48.800;9.216;2022-10-22T10:03:25;23.30;59.80
610;DHT22;292;48.800;9.216;2022-10-22T10:05:56;23.50;59.30
610;DHT22;292;48.800;9.216;2022-10-22T10:08:24;23.70;59.00
610;DHT22;292;48.800;9.216;2022-10-22T10:10:55;23.90;58.50
610;DHT22;292;48.800;9.216;2022-10-22T10:13:36;23.90;57.20
610;DHT22;292;48.800;9.216;2022-10-22T10:16:11;24.00;57.30
610;DHT22;292;48.800;9.216;2022-10-22T10:18:51;24.10;57.00
610;DHT22;292;48.800;9.216;2022-10-22T10:21:28;24.30;57.00
610;DHT22;292;48.800;9.216;2022-10-22T10:24:03;24.40;56.90
610;DHT22;292;48.800;9.216;2022-10-22T10:26:37;24.50;56.60
610;DHT22;292;48.800;9.216;2022-10-22T10:29:21;24.50;56.40
610;DHT22;292;48.800;9.216;2022-10-22T10:32:06;24.60;56.00
610;DHT22;292;48.800;9.216;2022-10-22T10:34:44;24.70;55.80
610;DHT22;292;48.800;9.216;2022-10-22T10:37:19;24.70;55.60
610;DHT22;292;48.800;9.216;2022-10-22T10:40:09;24.70;54.80
610;DHT22;292;48.800;9.216;2022-10-22T10:42:43;24.70;53.70
610;DHT22;292;48.800;9.216;2022-10-22T10:45:16;24.60;53.70
610;DHT22;292;48.800;9.216;2022-10-22T10:50:56;24.60;53.30
610;DHT22;292;48.800;9.216;2022-10-22T10:53:41;24.60;52.90
610;DHT22;292;48.800;9.216;2022-10-22T10:56:34;24.50;52.40
610;DHT22;292;48.800;9.216;2022-10-22T10:59:11;24.40;52.40
610;DHT22;292;48.800;9.216;2022-10-22T11:04:48;24.20;52.40
610;DHT22;292;48.800;9.216;2022-10-22T11:07:21;24.00;52.40
610;DHT22;292;48.800;9.216;2022-10-22T11:09:54;23.90;52.80
610;DHT22;292;48.800;9.216;2022-10-22T11:12:27;23.80;52.90
610;DHT22;292;48.800;9.216;2022-10-22T11:14:59;23.70;53.40
610;DHT22;292;48.800;9.216;2022-10-22T11:17:33;23.60;53.70
610;DHT22;292;48.800;9.216;2022-10-22T11:20:05;23.60;54.10
610;DHT22;292;48.800;9.216;2022-10-22T11:22:42;23.70;54.20
610;DHT22;292;48.800;9.216;2022-10-22T11:25:19;23.70;54.00
610;DHT22;292;48.800;9.216;2022-10-22T11:27:49;23.80;53.80
610;DHT22;292;48.800;9.216;2022-10-22T11:30:19;23.90;53.40
610;DHT22;292;48.800;9.216;2022-10-22T11:32:48;23.90;53.00
610;DHT22;292;48.800;9.216;2022-10-22T11:35:21;24.00;52.40
610;DHT22;292;48.800;9.216;2022-10-22T11:37:50;24.10;52.10
610;DHT22;292;48.800;9.216;2022-10-22T11:40:31;24.10;52.10
610;DHT22;292;48.800;9.216;2022-10-22T11:43:04;24.30;52.00
610;DHT22;292;48.800;9.216;2022-10-22T11:45:34;24.40;51.80
610;DHT22;292;48.800;9.216;2022-10-22T11:48:13;24.40;51.70
610;DHT22;292;48.800;9.216;2022-10-22T11:50:48;24.50;51.20
610;DHT22;292;48.800;9.216;2022-10-22T11:53:20;24.60;51.00
610;DHT22;292;48.800;9.216;2022-10-22T11:55:50;24.60;50.90
610;DHT22;292;48.800;9.216;2022-10-22T11:58:29;24.60;50.80
610;DHT22;292;48.800;9.216;2022-10-22T12:01:23;24.60;50.60
610;DHT22;292;48.800;9.216;2022-10-22T12:03:52;24.60;50.90
610;DHT22;292;48.800;9.216;2022-10-22T12:06:22;24.60;51.00
610;DHT22;292;48.800;9.216;2022-10-22T12:08:56;24.50;50.50
610;DHT22;292;48.800;9.216;2022-10-22T12:11:34;24.40;49.70
610;DHT22;292;48.800;9.216;2022-10-22T12:14:16;24.30;49.20
610;DHT22;292;48.800;9.216;2022-10-22T12:16:46;24.10;48.50
610;DHT22;292;48.800;9.216;2022-10-22T12:19:16;24.00;48.40
610;DHT22;292;48.800;9.216;2022-10-22T12:21:48;23.90;48.60
610;DHT22;292;48.800;9.216;2022-10-22T12:24:18;23.80;48.80
610;DHT22;292;48.800;9.216;2022-10-22T12:26:48;23.70;48.90
610;DHT22;292;48.800;9.216;2022-10-22T12:29:18;23.50;49.30
610;DHT22;292;48.800;9.216;2022-10-22T12:31:47;23.40;49.80
610;DHT22;292;48.800;9.216;2022-10-22T12:34:16;23.30;50.10
610;DHT22;292;48.800;9.216;2022-10-22T12:36:45;23.20;50.40
610;DHT22;292;48.800;9.216;2022-10-22T12:39:14;23.10;50.50
610;DHT22;292;48.800;9.216;2022-10-22T12:41:42;23.10;50.80
610;DHT22;292;48.800;9.216;2022-10-22T12:44:13;23.10;51.40
610;DHT22;292;48.800;9.216;2022-10-22T12:46:42;23.10;51.80
610;DHT22;292;48.800;9.216;2022-10-22T12:49:14;23.10;51.60
610;DHT22;292;48.800;9.216;2022-10-22T12:51:43;23.20;51.40
610;DHT22;292;48.800;9.216;2022-10-22T12:54:23;23.20;51.00
610;DHT22;292;48.800;9.216;2022-10-22T12:56:52;23.30;50.80
610;DHT22;292;48.800;9.216;2022-10-22T12:59:22;23.40;50.90
610;DHT22;292;48.800;9.216;2022-10-22T13:01:51;23.50;50.60
610;DHT22;292;48.800;9.216;2022-10-22T13:04:30;23.50;50.50
610;DHT22;292;48.800;9.216;2022-10-22T13:07:15;23.70;50.20
610;DHT22;292;48.800;9.216;2022-10-22T13:09:45;23.70;49.80
610;DHT22;292;48.800;9.216;2022-10-22T13:12:13;23.80;49.60
610;DHT22;292;48.800;9.216;2022-10-22T13:14:46;23.90;49.20
610;DHT22;292;48.800;9.216;2022-10-22T13:17:15;23.90;48.90
610;DHT22;292;48.800;9.216;2022-10-22T13:19:45;24.00;48.80
610;DHT22;292;48.800;9.216;2022-10-22T13:22:28;24.00;48.60
610;DHT22;292;48.800;9.216;2022-10-22T13:24:58;24.10;48.50
610;DHT22;292;48.800;9.216;2022-10-22T13:27:26;24.10;48.50
610;DHT22;292;48.800;9.216;2022-10-22T13:29:55;24.10;48.60
610;DHT22;292;48.800;9.216;2022-10-22T13:32:28;24.20;48.50
610;DHT22;292;48.800;9.216;2022-10-22T13:35:01;24.20;48.40
610;DHT22;292;48.800;9.216;2022-10-22T13:37:30;24.20;48.40
610;DHT22;292;48.800;9.216;2022-10-22T13:39:58;24.20;48.50
610;DHT22;292;48.800;9.216;2022-10-22T13:42:25;24.30;48.40
610;DHT22;292;48.800;9.216;2022-10-22T13:44:54;24.30;48.10
610;DHT22;292;48.800;9.216;2022-10-22T13:47:25;24.30;48.00
610;DHT22;292;48.800;9.216;2022-10-22T13:49:54;24.40;48.00
610;DHT22;292;48.800;9.216;2022-10-22T13:52:29;24.40;47.80
610;DHT22;292;48.800;9.216;2022-10-22T13:54:59;24.50;47.70
610;DHT22;292;48.800;9.216;2022-10-22T13:57:26;24.50;47.60
610;DHT22;292;48.800;9.216;2022-10-22T13:59:55;24.50;47.30
610;DHT22;292;48.800;9.216;2022-10-22T14:02:22;24.60;47.00
610;DHT22;292;48.800;9.216;2022-10-22T14:04:50;24.60;46.90
610;DHT22;292;48.800;9.216;2022-10-22T14:07:17;24.60;47.00
610;DHT22;292;48.800;9.216;2022-10-22T14:09:44;24.70;47.00
610;DHT22;292;48.800;9.216;2022-10-22T14:12:13;24.70;47.30
610;DHT22;292;48.800;9.216;2022-10-22T14:14:40;24.70;47.00
610;DHT22;292;48.800;9.216;2022-10-22T14:17:11;24.70;47.00
610;DHT22;292;48.800;9.216;2022-10-22T14:19:44;24.70;47.00
610;DHT22;292;48.800;9.216;2022-10-22T14:22:16;24.80;47.20
610;DHT22;292;48.800;9.216;2022-10-22T14:24:43;24.70;47.00
610;DHT22;292;48.800;9.216;2022-10-22T14:27:13;24.70;46.80
610;DHT22;292;48.800;9.216;2022-10-22T14:29:40;24.60;46.60
610;DHT22;292;48.800;9.216;2022-10-22T14:32:14;24.40;46.60
610;DHT22;292;48.800;9.216;2022-10-22T14:34:42;24.40;46.80
610;DHT22;292;48.800;9.216;2022-10-22T14:37:15;24.30;47.00
610;DHT22;292;48.800;9.216;2022-10-22T14:39:43;24.30;47.30
610;DHT22;292;48.800;9.216;2022-10-22T14:42:17;24.20;47.70
610;DHT22;292;48.800;9.216;2022-10-22T14:44:46;24.10;47.80
610;DHT22;292;48.800;9.216;2022-10-22T14:47:14;24.10;48.10
610;DHT22;292;48.800;9.216;2022-10-22T14:49:41;24.10;48.50
610;DHT22;292;48.800;9.216;2022-10-22T14:52:08;24.10;48.20
610;DHT22;292;48.800;9.216;2022-10-22T14:54:37;24.00;47.80
610;DHT22;292;48.800;9.216;2022-10-22T14:57:04;24.00;47.30
610;DHT22;292;48.800;9.216;2022-10-22T14:59:36;23.90;47.40
610;DHT22;292;48.800;9.216;2022-10-22T15:02:02;23.80;47.40
610;DHT22;292;48.800;9.216;2022-10-22T15:04:31;23.80;47.60
610;DHT22;292;48.800;9.216;2022-10-22T15:06:58;23.70;47.70
610;DHT22;292;48.800;9.216;2022-10-22T15:09:25;23.70;48.00
610;DHT22;292;48.800;9.216;2022-10-22T15:11:52;23.70;48.10
610;DHT22;292;48.800;9.216;2022-10-22T15:14:19;23.60;48.20
610;DHT22;292;48.800;9.216;2022-10-22T15:16:47;23.50;48.40
610;DHT22;292;48.800;9.216;2022-10-22T15:19:14;23.50;48.60
610;DHT22;292;48.800;9.216;2022-10-22T15:21:42;23.40;48.80
610;DHT22;292;48.800;9.216;2022-10-22T15:24:09;23.40;48.90
610;DHT22;292;48.800;9.216;2022-10-22T15:26:36;23.40;49.20
610;DHT22;292;48.800;9.216;2022-10-22T15:29:03;23.20;49.30
610;DHT22;292;48.800;9.216;2022-10-22T15:31:46;23.20;49.40
610;DHT22;292;48.800;9.216;2022-10-22T15:34:17;23.10;49.60
610;DHT22;292;48.800;9.216;2022-10-22T15:36:46;23.10;49.70
610;DHT22;292;48.800;9.216;2022-10-22T15:39:16;23.00;49.80
610;DHT22;292;48.800;9.216;2022-10-22T15:41:43;23.00;50.20
610;DHT22;292;48.800;9.216;2022-10-22T15:44:15;22.90;50.40
610;DHT22;292;48.800;9.216;2022-10-22T15:46:58;22.90;50.50
610;DHT22;292;48.800;9.216;2022-10-22T15:49:27;22.80;50.90
610;DHT22;292;48.800;9.216;2022-10-22T15:51:56;22.80;51.00
610;DHT22;292;48.800;9.216;2022-10-22T15:54:29;22.80;51.40
610;DHT22;292;48.800;9.216;2022-10-22T15:56:58;22.70;52.00
610;DHT22;292;48.800;9.216;2022-10-22T15:59:28;22.60;52.10
610;DHT22;292;48.800;9.216;2022-10-22T16:01:56;22.50;52.20
610;DHT22;292;48.800;9.216;2022-10-22T16:04:23;22.40;52.60
610;DHT22;292;48.800;9.216;2022-10-22T16:06:52;22.40;53.00
610;DHT22;292;48.800;9.216;2022-10-22T16:09:22;22.30;53.40
610;DHT22;292;48.800;9.216;2022-10-22T16:11:50;22.20;53.70
610;DHT22;292;48.800;9.216;2022-10-22T16:14:19;22.10;54.00
610;DHT22;292;48.800;9.216;2022-10-22T16:16:49;22.10;54.40
610;DHT22;292;48.800;9.216;2022-10-22T16:19:19;22.00;54.60
610;DHT22;292;48.800;9.216;2022-10-22T16:21:48;21.90;55.00
610;DHT22;292;48.800;9.216;2022-10-22T16:24:16;21.80;55.30
610;DHT22;292;48.800;9.216;2022-10-22T16:26:45;21.80;55.70
610;DHT22;292;48.800;9.216;2022-10-22T16:29:13;21.70;55.80
610;DHT22;292;48.800;9.216;2022-10-22T16:31:41;21.70;56.00
610;DHT22;292;48.800;9.216;2022-10-22T16:34:19;21.60;56.10
610;DHT22;292;48.800;9.216;2022-10-22T16:36:49;21.50;56.40
610;DHT22;292;48.800;9.216;2022-10-22T16:39:18;21.40;56.60
610;DHT22;292;48.800;9.216;2022-10-22T16:41:46;21.40;56.90
610;DHT22;292;48.800;9.216;2022-10-22T16:44:14;21.30;57.30
610;DHT22;292;48.800;9.216;2022-10-22T16:46:41;21.30;57.40
610;DHT22;292;48.800;9.216;2022-10-22T16:49:08;21.20;57.60
610;DHT22;292;48.800;9.216;2022-10-22T16:51:38;21.10;57.60
610;DHT22;292;48.800;9.216;2022-10-22T16:54:06;21.10;58.00
610;DHT22;292;48.800;9.216;2022-10-22T16:56:33;21.10;58.40
610;DHT22;292;48.800;9.216;2022-10-22T16:59:02;21.00;58.50
610;DHT22;292;48.800;9.216;2022-10-22T17:01:29;20.90;58.60